Time;durP1;ratioP1;P1;durP2;ratioP2;P2;SDS_P1;SDS_P2;PMS_P1;PMS_P2;Temp;Humidity;BMP_temperature;BMP_pressure;BME280_temperature;BME280_humidity;BME280_pressure;Samples;Min_cycle;Max_cycle;Signal;HPM_P1;HPM_P2
2021/05/09 00:00:24;;;;;;;0.50;0.20;;;;;;;5.45;72.03;99866.33;1759735;80;21187;-52
2021/05/09 00:02:51;;;;;;;0.60;0.30;;;;;;;5.44;72.04;99869.95;1758002;80;21197;-52
2021/05/09 00:05:19;;;;;;;0.60;0.30;;;;;;;5.44;72.12;99870.41;1755521;80;22091;-52
2021/05/09 00:07:46;;;;;;;1.00;0.33;;;;;;;5.43;72.08;99869.98;1758885;80;21504;-51
2021/05/09 00:10:14;;;;;;;0.53;0.33;;;;;;;5.42;72.07;99874.89;1755757;80;21187;-51
2021/05/09 00:12:41;;;;;;;0.80;0.40;;;;;;;5.40;72.09;99872.72;1756331;80;21111;-52
2021/05/09 00:15:11;;;;;;;0.60;0.40;;;;;;;5.37;72.09;99882.13;1755052;80;21215;-52
2021/05/09 00:17:39;;;;;;;0.50;0.40;;;;;;;5.35;72.09;99875.97;1764363;79;21455;-52
2021/05/09 00:20:07;;;;;;;0.77;0.47;;;;;;;5.29;72.06;99880.53;1767112;79;21700;-52
2021/05/09 00:22:35;;;;;;;0.50;0.40;;;;;;;5.25;72.11;99883.33;1772498;79;21142;-52
2021/05/09 00:25:04;;;;;;;0.60;0.30;;;;;;;5.22;72.17;99885.61;1768514;79;21159;-52
2021/05/09 00:27:31;;;;;;;0.40;0.30;;;;;;;5.21;72.21;99889.19;1770095;79;22579;-52
2021/05/09 00:29:58;;;;;;;0.73;0.30;;;;;;;5.19;72.28;99885.67;1767320;79;21235;-51
2021/05/09 00:32:26;;;;;;;0.30;0.30;;;;;;;5.18;72.35;99885.73;1765502;79;21182;-52
2021/05/09 00:34:55;;;;;;;1.03;0.40;;;;;;;5.17;72.42;99891.52;1769448;79;21182;-51
2021/05/09 00:37:22;;;;;;;0.60;0.40;;;;;;;5.17;72.45;99886.19;1766661;79;21643;-52
2021/05/09 00:39:49;;;;;;;0.43;0.30;;;;;;;5.16;72.50;99896.44;1767899;79;21700;-52
2021/05/09 00:42:17;;;;;;;0.50;0.40;;;;;;;5.14;72.51;99900.05;1769416;79;21178;-52
2021/05/09 00:44:45;;;;;;;0.40;0.30;;;;;;;5.11;72.55;99906.32;1765262;79;21228;-52
2021/05/09 00:47:13;;;;;;;0.70;0.50;;;;;;;5.09;72.60;99910.84;1766730;79;21202;-52
2021/05/09 00:49:42;;;;;;;0.47;0.37;;;;;;;5.07;72.58;99905.99;1770457;79;21111;-52
2021/05/09 00:52:10;;;;;;;1.40;0.40;;;;;;;5.04;72.59;99907.84;1748842;79;22165;-52
2021/05/09 00:54:54;;;;;;;0.90;0.40;;;;;;;5.01;72.64;99910.59;1769046;79;21616;-52
2021/05/09 00:57:22;;;;;;;0.60;0.40;;;;;;;5.00;72.62;99912.84;1767215;79;21174;-52
2021/05/09 00:59:51;;;;;;;0.57;0.30;;;;;;;5.00;72.63;99914.17;1768633;79;21733;-52
2021/05/09 01:02:19;;;;;;;0.87;0.47;;;;;;;5.00;72.61;99919.52;1768253;79;21597;-52
2021/05/09 01:04:47;;;;;;;0.53;0.40;;;;;;;5.00;72.58;99917.72;1770243;79;21377;-52
2021/05/09 01:07:14;;;;;;;2.30;0.50;;;;;;;4.99;72.63;99923.09;1707064;82;21768;-52
2021/05/09 01:09:42;;;;;;;0.80;0.50;;;;;;;4.95;72.61;99924.94;1740300;80;21847;-52
2021/05/09 01:12:11;;;;;;;2.67;0.60;;;;;;;4.97;72.66;99931.58;1737957;80;21256;-52
2021/05/09 01:14:39;;;;;;;1.03;0.80;;;;;;;4.95;72.66;99931.61;1741749;80;21621;-52
2021/05/09 01:17:07;;;;;;;0.90;0.60;;;;;;;4.94;72.62;99927.17;1703563;81;21445;-52
2021/05/09 01:19:37;;;;;;;1.20;0.60;;;;;;;4.92;72.63;99928.57;1733568;81;21182;-52
2021/05/09 01:22:06;;;;;;;1.73;0.60;;;;;;;4.90;72.65;99926.39;1730179;81;21216;-52
2021/05/09 01:24:34;;;;;;;2.03;0.70;;;;;;;4.87;72.62;99930.90;1732328;81;21180;-52
2021/05/09 01:27:03;;;;;;;1.13;0.70;;;;;;;4.85;72.62;99934.05;1727044;81;21259;-52
2021/05/09 01:29:31;;;;;;;0.70;0.50;;;;;;;4.79;72.55;99931.08;1696397;81;22081;-52
2021/05/09 01:31:59;;;;;;;0.90;0.50;;;;;;;4.77;72.59;99938.67;1729775;81;21206;-52
2021/05/09 01:34:33;;;;;;;1.00;0.50;;;;;;;4.75;72.59;99940.07;1696595;81;21197;-52
2021/05/09 01:36:56;;;;;;;1.63;0.60;;;;;;;4.72;72.60;99945.91;1727165;81;22025;-52
2021/05/09 01:39:23;;;;;;;1.23;0.50;;;;;;;4.71;72.70;99946.82;1727926;81;21150;-52
2021/05/09 01:41:51;;;;;;;0.50;0.40;;;;;;;4.70;72.70;99945.06;1773506;79;21574;-52
2021/05/09 01:44:19;;;;;;;0.60;0.50;;;;;;;4.69;72.79;99960.63;1775081;79;21155;-52
2021/05/09 01:46:46;;;;;;;1.03;0.50;;;;;;;4.68;72.81;99959.75;1770300;79;21507;-52
2021/05/09 01:49:15;;;;;;;0.63;0.50;;;;;;;4.67;72.81;99960.69;1771568;79;21648;-52
2021/05/09 01:51:42;;;;;;;0.70;0.40;;;;;;;4.66;72.76;99959.38;1771400;79;21103;-52
2021/05/09 01:54:10;;;;;;;0.60;0.50;;;;;;;4.64;72.77;99958.08;1775282;79;21393;-52
2021/05/09 01:56:38;;;;;;;0.63;0.40;;;;;;;4.61;72.82;99961.25;1770283;79;21127;-52
2021/05/09 01:59:07;;;;;;;0.37;0.30;;;;;;;4.58;72.87;99963.55;1773598;79;21110;-52
2021/05/09 02:01:38;;;;;;;0.40;0.30;;;;;;;4.54;72.82;99960.50;1771626;79;21099;-52
2021/05/09 02:04:07;;;;;;;1.30;0.40;;;;;;;4.51;72.83;99975.22;1769583;79;21507;-52
2021/05/09 02:06:35;;;;;;;0.40;0.40;;;;;;;4.47;72.79;99977.08;1771629;79;21191;-52
2021/05/09 02:09:04;;;;;;;0.80;0.40;;;;;;;4.46;72.74;99973.99;1770340;79;21760;-52
2021/05/09 02:11:33;;;;;;;0.57;0.40;;;;;;;4.45;72.74;99980.22;1772675;79;21126;-52
2021/05/09 02:14:04;;;;;;;1.20;0.40;;;;;;;4.44;72.85;99983.80;1774711;79;21099;-51
2021/05/09 02:16:35;;;;;;;0.90;0.50;;;;;;;4.45;72.91;99973.56;1776567;79;21144;-51
2021/05/09 02:19:03;;;;;;;1.70;0.50;;;;;;;4.44;72.90;99983.80;1772756;79;21369;-51
2021/05/09 02:21:35;;;;;;;0.70;0.53;;;;;;;4.42;72.89;99976.77;1769284;79;21133;-51
2021/05/09 02:24:04;;;;;;;2.10;0.53;;;;;;;4.41;73.00;99983.88;1773222;79;21103;-51
2021/05/09 02:26:32;;;;;;;0.63;0.53;;;;;;;4.40;72.99;99980.78;1774417;79;21185;-51
2021/05/09 02:29:00;;;;;;;0.60;0.57;;;;;;;4.40;72.97;99981.23;1771896;79;21123;-52
2021/05/09 02:31:27;;;;;;;1.27;0.70;;;;;;;4.38;73.00;99988.38;1774465;79;21661;-51
2021/05/09 02:33:54;;;;;;;2.00;0.60;;;;;;;4.34;72.93;99996.88;1771196;79;21094;-52
2021/05/09 02:36:21;;;;;;;0.70;0.50;;;;;;;4.30;73.01;100007.63;1779159;79;21152;-51
2021/05/09 02:38:49;;;;;;;4.00;0.60;;;;;;;4.25;73.08;100005.07;1747338;79;21138;-51
2021/05/09 02:41:16;;;;;;;1.13;0.50;;;;;;;4.24;73.21;100018.41;1716682;80;21175;-51
2021/05/09 02:43:44;;;;;;;2.27;0.40;;;;;;;4.25;73.22;100026.39;1722968;81;21707;-51
2021/05/09 02:46:12;;;;;;;2.50;0.60;;;;;;;4.26;73.29;100037.89;1722774;81;21529;-51
2021/05/09 02:48:40;;;;;;;0.57;0.40;;;;;;;4.27;73.42;100031.66;1770380;79;21241;-51
2021/05/09 02:51:08;;;;;;;0.67;0.40;;;;;;;4.29;73.51;100037.84;1771772;79;21210;-51
2021/05/09 02:53:35;;;;;;;0.70;0.50;;;;;;;4.31;73.60;100035.59;1769362;79;21159;-51
2021/05/09 02:56:05;;;;;;;0.60;0.50;;;;;;;4.33;73.62;100035.12;1770268;79;21481;-51
2021/05/09 02:58:33;;;;;;;0.60;0.50;;;;;;;4.37;73.64;100042.58;1769757;79;21109;-51
2021/05/09 03:01:00;;;;;;;0.90;0.50;;;;;;;4.37;73.58;100046.12;1770564;79;21167;-51
2021/05/09 03:03:28;;;;;;;1.97;0.57;;;;;;;4.37;73.66;100048.80;1771140;79;21186;-51
2021/05/09 03:05:56;;;;;;;2.30;0.50;;;;;;;4.37;73.69;100054.58;1775954;79;21163;-51
2021/05/09 03:08:23;;;;;;;1.03;0.50;;;;;;;4.38;73.75;100060.34;1772070;79;21434;-51
2021/05/09 03:10:50;;;;;;;0.63;0.63;;;;;;;4.39;73.79;100068.31;1771054;79;21409;-52
2021/05/09 03:13:18;;;;;;;0.80;0.43;;;;;;;4.40;73.83;100068.73;1770991;79;21193;-51
2021/05/09 03:15:47;;;;;;;4.37;0.67;;;;;;;4.43;73.89;100067.78;1770869;79;21234;-52
2021/05/09 03:18:15;;;;;;;1.60;0.43;;;;;;;4.47;73.99;100080.16;1769823;79;21593;-51
2021/05/09 03:20:42;;;;;;;1.43;0.50;;;;;;;4.50;74.03;100074.33;1770501;79;22839;-51
2021/05/09 03:23:10;;;;;;;2.30;0.57;;;;;;;4.54;74.05;100082.69;1771698;79;21619;-52
2021/05/09 03:25:37;;;;;;;1.10;0.57;;;;;;;4.59;74.15;100083.06;1770097;79;21473;-52
2021/05/09 03:28:05;;;;;;;1.03;0.60;;;;;;;4.64;74.15;100089.17;1774451;79;21179;-52
2021/05/09 03:30:32;;;;;;;0.70;0.50;;;;;;;4.69;74.12;100092.63;1770247;79;21541;-52
2021/05/09 03:32:59;;;;;;;0.77;0.57;;;;;;;4.73;74.11;100093.89;1773753;79;21202;-52
2021/05/09 03:35:26;;;;;;;0.60;0.50;;;;;;;4.77;74.08;100092.02;1774830;79;21182;-51
2021/05/09 03:37:53;;;;;;;1.63;0.67;;;;;;;4.80;74.04;100095.97;1771730;79;21183;-52
2021/05/09 03:40:21;;;;;;;0.93;0.50;;;;;;;4.83;74.04;100104.81;1769887;79;21182;-51
2021/05/09 03:42:48;;;;;;;0.80;0.53;;;;;;;4.89;73.97;100103.80;1774958;79;21196;-53
2021/05/09 03:45:15;;;;;;;0.70;0.43;;;;;;;4.95;73.89;100106.33;1771859;79;21599;-52
2021/05/09 03:47:43;;;;;;;3.80;0.50;;;;;;;5.02;73.83;100110.63;1771264;79;21203;-52
2021/05/09 03:50:10;;;;;;;1.57;0.60;;;;;;;5.10;73.80;100107.84;1746381;80;21176;-52
2021/05/09 03:52:38;;;;;;;0.87;0.50;;;;;;;5.18;73.76;100109.44;1715133;82;21198;-52
2021/05/09 03:55:09;;;;;;;0.90;0.50;;;;;;;5.26;73.73;100115.50;1735240;80;21205;-52
2021/05/09 03:57:36;;;;;;;0.67;0.50;;;;;;;5.35;73.59;100105.53;1769925;79;22746;-52
2021/05/09 04:00:06;;;;;;;0.73;0.50;;;;;;;5.45;73.52;100113.73;1770836;79;21492;-52
2021/05/09 04:02:35;;;;;;;0.77;0.43;;;;;;;5.52;73.37;100118.06;1768897;79;21159;-52
2021/05/09 04:05:04;;;;;;;0.57;0.40;;;;;;;5.63;73.21;100124.02;1770600;79;21151;-52
2021/05/09 04:07:31;;;;;;;2.20;0.60;;;;;;;5.76;73.07;100113.95;1772897;79;21178;-52
2021/05/09 04:09:59;;;;;;;1.00;0.57;;;;;;;5.97;72.74;100114.80;1770949;79;21685;-52
2021/05/09 04:12:26;;;;;;;0.60;0.43;;;;;;;6.28;72.44;100117.17;1772726;79;21162;-51
2021/05/09 04:14:55;;;;;;;0.50;0.40;;;;;;;6.75;71.97;100115.05;1769415;79;21700;-53
2021/05/09 04:17:22;;;;;;;0.57;0.40;;;;;;;7.31;71.02;100116.15;1775220;79;21182;-52
2021/05/09 04:19:50;;;;;;;0.60;0.50;;;;;;;7.85;69.62;100120.28;1773734;79;21145;-53
2021/05/09 04:22:17;;;;;;;0.70;0.40;;;;;;;8.35;68.13;100115.99;1770329;79;21301;-51
2021/05/09 04:24:45;;;;;;;0.60;0.40;;;;;;;8.65;67.22;100119.92;1771557;79;21162;-52
2021/05/09 04:27:12;;;;;;;0.60;0.47;;;;;;;8.83;65.92;100127.80;1771874;79;21197;-52
2021/05/09 04:29:40;;;;;;;1.20;0.50;;;;;;;8.97;65.00;100127.71;1772561;79;20993;-51
2021/05/09 04:32:08;;;;;;;1.00;0.43;;;;;;;9.00;64.13;100126.73;1776535;79;21226;-51
2021/05/09 04:34:35;;;;;;;0.80;0.60;;;;;;;8.93;63.59;100128.73;1770702;79;21528;-51
2021/05/09 04:37:02;;;;;;;2.20;0.50;;;;;;;8.80;63.19;100134.14;1773614;79;22335;-51
2021/05/09 04:39:30;;;;;;;2.40;0.50;;;;;;;8.66;62.72;100136.44;1771383;79;21169;-51
2021/05/09 04:41:57;;;;;;;1.90;0.50;;;;;;;8.46;63.06;100133.53;1776761;79;21853;-52
2021/05/09 04:44:24;;;;;;;0.70;0.50;;;;;;;8.32;63.45;100142.94;1772145;79;21609;-51
2021/05/09 04:46:52;;;;;;;0.63;0.43;;;;;;;8.22;63.73;100141.91;1772764;79;21375;-51
2021/05/09 04:49:21;;;;;;;0.60;0.50;;;;;;;8.15;63.90;100151.95;1750198;79;21317;-52
2021/05/09 04:51:48;;;;;;;1.33;0.40;;;;;;;8.11;64.18;100153.42;1772404;79;21163;-51
2021/05/09 04:54:15;;;;;;;0.60;0.40;;;;;;;8.06;64.35;100158.95;1772342;79;21194;-51
2021/05/09 04:56:43;;;;;;;1.13;0.40;;;;;;;8.03;64.53;100160.83;1770625;79;21155;-51
2021/05/09 04:59:11;;;;;;;0.87;0.40;;;;;;;8.05;64.75;100168.38;1776435;79;21649;-51
2021/05/09 05:01:38;;;;;;;1.13;0.50;;;;;;;8.08;64.81;100166.45;1773883;79;21644;-51
2021/05/09 05:04:05;;;;;;;0.97;0.50;;;;;;;8.13;64.88;100171.69;1753124;80;21126;-51
2021/05/09 05:06:33;;;;;;;0.80;0.40;;;;;;;8.17;64.97;100171.53;1735885;81;21101;-50
2021/05/09 05:09:00;;;;;;;0.70;0.50;;;;;;;8.22;64.76;100176.77;1728655;81;21115;-52
2021/05/09 05:11:28;;;;;;;0.60;0.40;;;;;;;8.22;64.72;100174.96;1778936;79;21382;-51
2021/05/09 05:13:55;;;;;;;2.83;0.63;;;;;;;8.25;64.75;100174.84;1774220;79;21119;-51
2021/05/09 05:16:22;;;;;;;2.30;0.60;;;;;;;8.29;64.85;100178.32;1781353;79;21131;-52
2021/05/09 05:18:50;;;;;;;2.07;0.40;;;;;;;8.31;64.64;100176.05;1743221;80;21118;-51
2021/05/09 05:21:17;;;;;;;0.70;0.50;;;;;;;8.34;64.82;100179.06;1737613;81;21103;-52
2021/05/09 05:23:44;;;;;;;0.67;0.40;;;;;;;8.38;64.67;100181.20;1733558;80;22125;-52
2021/05/09 05:26:12;;;;;;;0.60;0.40;;;;;;;8.42;64.46;100186.89;1738395;80;21206;-51
2021/05/09 05:28:39;;;;;;;0.40;0.30;;;;;;;8.44;63.88;100180.53;1733025;80;21202;-52
2021/05/09 05:31:06;;;;;;;0.50;0.40;;;;;;;8.45;63.84;100184.97;1730078;80;21157;-51
2021/05/09 05:33:35;;;;;;;0.40;0.40;;;;;;;8.48;63.82;100188.91;1735231;80;21178;-51
2021/05/09 05:36:05;;;;;;;0.53;0.40;;;;;;;8.52;63.76;100191.01;1740137;80;21164;-51
2021/05/09 05:38:33;;;;;;;0.60;0.40;;;;;;;8.56;63.50;100193.55;1738962;80;21589;-52
2021/05/09 05:41:00;;;;;;;0.53;0.40;;;;;;;8.62;63.13;100190.66;1738114;80;21738;-52
2021/05/09 05:43:29;;;;;;;0.50;0.33;;;;;;;8.67;62.46;100191.41;1735289;80;21212;-52
2021/05/09 05:45:58;;;;;;;0.50;0.40;;;;;;;8.71;62.24;100189.02;1730802;81;21629;-51
2021/05/09 05:48:26;;;;;;;1.40;0.30;;;;;;;8.77;62.13;100193.28;1735109;80;21484;-52
2021/05/09 05:50:54;;;;;;;0.50;0.50;;;;;;;8.85;61.78;100191.22;1727776;80;21186;-51
2021/05/09 05:53:26;;;;;;;0.57;0.37;;;;;;;8.91;62.00;100192.37;1764940;79;21193;-51
2021/05/09 05:55:53;;;;;;;0.63;0.40;;;;;;;8.99;62.18;100192.10;1769725;79;21183;-51
2021/05/09 05:58:21;;;;;;;1.87;0.50;;;;;;;9.06;62.06;100187.80;1768225;79;21134;-51
2021/05/09 06:00:48;;;;;;;0.77;0.40;;;;;;;9.13;61.60;100192.95;1768285;79;21192;-51
2021/05/09 06:03:16;;;;;;;0.57;0.40;;;;;;;9.17;60.90;100197.30;1772091;79;22444;-52
2021/05/09 06:05:46;;;;;;;0.63;0.40;;;;;;;9.19;60.74;100194.06;1768992;79;21172;-52
2021/05/09 06:08:16;;;;;;;0.40;0.30;;;;;;;9.24;60.42;100193.45;1774922;79;21154;-52
2021/05/09 06:10:44;;;;;;;1.87;0.40;;;;;;;9.28;60.27;100197.30;1775308;79;21450;-52
2021/05/09 06:13:12;;;;;;;0.50;0.40;;;;;;;9.33;60.08;100195.34;1776666;79;22274;-51
2021/05/09 06:15:39;;;;;;;0.87;0.47;;;;;;;9.41;60.27;100200.44;1777233;79;21521;-51
2021/05/09 06:18:07;;;;;;;0.40;0.40;;;;;;;9.49;60.43;100202.38;1767073;79;21492;-52
2021/05/09 06:20:34;;;;;;;0.60;0.43;;;;;;;9.60;60.35;100198.84;1771714;79;22054;-51
2021/05/09 06:23:02;;;;;;;0.70;0.40;;;;;;;9.69;59.41;100201.65;1768671;79;21234;-51
2021/05/09 06:25:31;;;;;;;0.40;0.40;;;;;;;9.73;59.27;100205.50;1774246;79;21206;-51
2021/05/09 06:27:59;;;;;;;2.35;0.40;;;;;;;9.80;59.46;100208.36;1774636;79;21210;-51
2021/05/09 06:30:26;;;;;;;0.40;0.30;;;;;;;9.90;59.32;100216.08;1771535;79;22354;-52
2021/05/09 06:32:53;;;;;;;0.47;0.30;;;;;;;9.96;59.20;100210.45;1771629;79;21826;-51
2021/05/09 06:35:21;;;;;;;1.32;0.30;;;;;;;10.04;58.62;100215.06;1770516;79;21202;-53
2021/05/09 06:37:54;;;;;;;0.30;0.30;;;;;;;10.09;58.21;100216.66;1767851;79;21382;-52
2021/05/09 06:40:22;;;;;;;1.55;0.30;;;;;;;10.15;56.24;100219.57;1770529;79;22314;-52
2021/05/09 06:42:57;;;;;;;0.40;0.30;;;;;;;10.17;56.35;100215.02;1770723;79;21198;-51
2021/05/09 06:45:28;;;;;;;0.40;0.30;;;;;;;10.18;56.56;100224.88;1769435;79;21188;-52
2021/05/09 06:47:56;;;;;;;1.80;0.30;;;;;;;10.23;56.52;100216.14;1768499;79;21198;-52
2021/05/09 06:50:24;;;;;;;0.40;0.30;;;;;;;10.27;55.98;100216.45;1768515;79;21383;-52
2021/05/09 06:52:51;;;;;;;0.45;0.30;;;;;;;10.32;56.35;100221.16;1769704;79;21232;-51
2021/05/09 06:55:19;;;;;;;1.32;0.30;;;;;;;10.37;56.31;100215.16;1770444;79;21183;-52
2021/05/09 06:57:47;;;;;;;0.40;0.40;;;;;;;10.44;56.38;100226.07;1772755;79;21214;-51
2021/05/09 07:00:16;;;;;;;0.53;0.40;;;;;;;10.52;55.96;100219.03;1771496;79;21451;-51
2021/05/09 07:02:45;;;;;;;2.35;0.50;;;;;;;10.58;55.58;100223.69;1769113;79;21279;-51
2021/05/09 07:05:13;;;;;;;1.42;0.30;;;;;;;10.65;55.25;100216.23;1769616;79;21164;-51
2021/05/09 07:07:54;;;;;;;0.30;0.30;;;;;;;10.67;54.09;100213.02;1745166;79;21151;-50
2021/05/09 07:10:23;;;;;;;0.30;0.30;;;;;;;10.72;54.92;100215.53;1768346;79;21167;-51
2021/05/09 07:12:50;;;;;;;0.40;0.30;;;;;;;10.79;55.29;100213.86;1769148;79;21238;-52
2021/05/09 07:20:39;;;;;;;1.35;0.30;;;;;;;10.97;52.23;100205.48;1833955;75;22404;-52
2021/05/09 07:23:07;;;;;;;0.20;0.20;;;;;;;10.98;51.06;100208.08;1833970;75;22709;-50
2021/05/09 07:25:34;;;;;;;0.50;0.30;;;;;;;11.03;52.70;100207.02;1833795;75;21517;-52
2021/05/09 07:28:13;;;;;;;0.80;0.30;;;;;;;11.12;52.48;100206.63;1836201;75;21134;-51
2021/05/09 07:30:43;;;;;;;0.85;0.30;;;;;;;11.21;52.45;100209.80;1835746;75;21186;-50
2021/05/09 07:33:12;;;;;;;0.45;0.20;;;;;;;11.29;51.77;100221.59;1839155;75;21233;-51
2021/05/09 07:35:42;;;;;;;0.40;0.30;;;;;;;11.38;50.66;100207.72;1777842;78;22201;-50
2021/05/09 07:38:10;;;;;;;0.33;0.30;;;;;;;11.41;50.49;100220.16;1800025;77;21071;-51
2021/05/09 07:40:40;;;;;;;0.80;0.25;;;;;;;11.43;49.52;100215.58;1799105;77;21368;-50
2021/05/09 07:43:09;;;;;;;0.50;0.23;;;;;;;11.43;50.00;100208.38;1791635;77;21541;-50
2021/05/09 07:45:36;;;;;;;0.60;0.35;;;;;;;11.51;50.33;100212.95;1770250;79;21177;-51
2021/05/09 07:48:05;;;;;;;0.50;0.20;;;;;;;11.58;49.57;100221.16;1756170;80;21446;-52
2021/05/09 07:50:33;;;;;;;0.40;0.30;;;;;;;11.62;49.66;100210.66;1753115;79;21169;-51
2021/05/09 07:53:00;;;;;;;0.70;0.28;;;;;;;11.67;48.91;100216.70;1773314;79;21115;-51
2021/05/09 07:55:27;;;;;;;1.87;0.20;;;;;;;11.66;48.01;100223.04;1775257;79;21121;-52
2021/05/09 07:57:54;;;;;;;0.45;0.30;;;;;;;11.67;47.64;100212.66;1777020;79;21656;-52
2021/05/09 08:00:22;;;;;;;0.25;0.23;;;;;;;11.68;47.43;100207.67;1775816;79;22341;-52
2021/05/09 08:02:51;;;;;;;0.30;0.20;;;;;;;11.73;48.22;100220.50;1772657;79;22137;-51
2021/05/09 08:05:22;;;;;;;0.40;0.30;;;;;;;11.78;47.84;100220.77;1766645;79;21127;-51
2021/05/09 08:07:54;;;;;;;0.35;0.20;;;;;;;11.79;47.08;100215.31;1760509;80;21182;-52
2021/05/09 08:10:23;;;;;;;0.20;0.20;;;;;;;11.81;47.41;100224.69;1767027;79;21123;-51
2021/05/09 08:12:50;;;;;;;0.40;0.20;;;;;;;11.83;47.01;100225.47;1768752;79;21155;-52
2021/05/09 08:15:18;;;;;;;0.33;0.30;;;;;;;11.85;46.96;100224.94;1768453;79;21562;-52
2021/05/09 08:17:46;;;;;;;1.30;0.42;;;;;;;11.86;47.20;100222.17;1773608;79;20993;-52
2021/05/09 08:20:14;;;;;;;0.20;0.20;;;;;;;11.92;45.29;100216.48;1766285;79;21513;-52
2021/05/09 08:22:44;;;;;;;0.30;0.30;;;;;;;12.00;46.54;100215.66;1766190;79;21104;-52
2021/05/09 08:25:13;;;;;;;0.50;0.20;;;;;;;12.10;47.24;100213.41;1744966;79;21594;-51
2021/05/09 08:27:43;;;;;;;0.33;0.20;;;;;;;12.20;46.99;100214.73;1789152;78;21424;-51
2021/05/09 08:30:11;;;;;;;0.50;0.20;;;;;;;12.27;46.41;100212.13;1757656;80;21130;-52
2021/05/09 08:33:22;;;;;;;0.60;0.23;;;;;;;12.32;47.10;100207.41;1789353;77;23288;-52
2021/05/09 08:35:49;;;;;;;0.30;0.17;;;;;;;12.36;46.33;100216.22;1764919;79;21202;-52
2021/05/09 08:38:17;;;;;;;0.40;0.30;;;;;;;12.42;45.77;100208.69;1764398;78;21230;-51
2021/05/09 08:40:45;;;;;;;0.72;0.20;;;;;;;12.51;45.81;100208.24;1764255;79;21478;-52
2021/05/09 08:43:13;;;;;;;0.30;0.25;;;;;;;12.59;44.52;100211.06;1754233;80;21215;-52
2021/05/09 08:45:40;;;;;;;0.40;0.28;;;;;;;12.64;44.60;100210.35;1757004;80;22308;-52
2021/05/09 08:48:13;;;;;;;0.93;0.30;;;;;;;12.61;44.63;100201.91;1754085;80;21159;-51
2021/05/09 08:50:41;;;;;;;0.20;0.20;;;;;;;12.61;44.71;100198.34;1757237;80;21459;-51
2021/05/09 08:53:09;;;;;;;0.20;0.20;;;;;;;12.68;44.76;100191.20;1753025;80;21214;-52
2021/05/09 08:55:37;;;;;;;0.25;0.25;;;;;;;12.73;45.16;100201.33;1697265;82;21180;-51
2021/05/09 08:58:06;;;;;;;1.27;0.20;;;;;;;12.83;45.13;100195.86;1700759;82;21230;-52
2021/05/09 09:00:33;;;;;;;0.57;0.25;;;;;;;12.93;43.95;100217.86;1639073;82;21210;-52
2021/05/09 09:03:03;;;;;;;0.30;0.30;;;;;;;12.97;42.36;100214.06;1700867;82;23176;-51
2021/05/09 09:05:41;;;;;;;0.13;0.13;;;;;;;13.00;42.74;100209.87;1702336;82;21215;-52
2021/05/09 09:08:10;;;;;;;0.20;0.20;;;;;;;13.05;42.59;100203.73;1703612;82;21064;-51
2021/05/09 09:10:47;;;;;;;0.50;0.40;;;;;;;13.12;43.70;100198.41;1701786;82;21247;-53
2021/05/09 09:13:30;;;;;;;0.30;0.25;;;;;;;13.17;42.31;100213.09;1702005;82;21201;-51
2021/05/09 09:16:04;;;;;;;0.35;0.28;;;;;;;13.09;41.77;100211.23;1703202;82;21397;-52
2021/05/09 09:18:42;;;;;;;;;;;;;;;13.04;42.95;100221.38;1706692;82;21194;-52
2021/05/09 09:21:30;;;;;;;0.30;0.20;;;;;;;13.07;44.03;100219.41;1700579;82;20547;-51
2021/05/09 09:24:10;;;;;;;0.82;0.20;;;;;;;13.15;43.27;100217.22;1704431;82;21187;-51
2021/05/09 09:26:50;;;;;;;0.20;0.20;;;;;;;13.25;43.60;100212.22;1703753;82;21203;-52
2021/05/09 09:29:30;;;;;;;0.40;0.30;;;;;;;13.36;43.34;100208.45;1702751;82;21294;-52
2021/05/09 09:32:06;;;;;;;1.32;0.20;;;;;;;13.45;42.38;100212.03;1694697;82;21781;-52
2021/05/09 09:34:45;;;;;;;0.78;0.20;;;;;;;13.44;42.24;100218.39;1720976;81;21439;-52
2021/05/09 09:37:14;;;;;;;0.30;0.20;;;;;;;13.45;41.28;100218.79;1726642;81;21228;-50
2021/05/09 09:39:59;;;;;;;0.30;0.20;;;;;;;13.39;42.36;100220.47;1721139;81;22108;-51
2021/05/09 09:42:47;;;;;;;0.50;0.30;;;;;;;13.41;43.41;100219.92;1720709;81;21589;-51
2021/05/09 09:45:23;;;;;;;0.23;0.20;;;;;;;13.44;42.40;100211.62;1724520;80;21539;-50
2021/05/09 09:48:01;;;;;;;0.30;0.20;;;;;;;13.40;42.27;100214.11;1728618;81;21185;-52
2021/05/09 09:50:46;;;;;;;0.20;0.20;;;;;;;13.45;42.00;100210.67;1722992;80;21998;-53
2021/05/09 09:53:38;;;;;;;0.20;0.20;;;;;;;13.49;42.89;100216.34;1722919;81;21184;-52
2021/05/09 09:56:11;;;;;;;0.30;0.20;;;;;;;13.53;42.06;100218.38;1723602;81;22091;-52
2021/05/09 09:59:00;;;;;;;0.88;0.25;;;;;;;13.58;42.19;100210.44;1722256;81;21220;-52
2021/05/09 10:01:31;;;;;;;0.20;0.20;;;;;;;13.63;42.52;100215.11;1725053;81;21770;-52
2021/05/09 10:04:05;;;;;;;0.20;0.10;;;;;;;13.73;42.12;100220.91;1666798;83;21224;-50
2021/05/09 10:06:34;;;;;;;0.20;0.20;;;;;;;13.71;41.38;100216.53;1653982;84;22225;-52
2021/05/09 10:09:01;;;;;;;0.20;0.20;;;;;;;13.62;40.56;100236.35;1658215;84;21231;-52
2021/05/09 10:11:31;;;;;;;0.30;0.20;;;;;;;13.51;39.80;100231.14;1660174;84;21206;-52
2021/05/09 10:13:58;;;;;;;0.35;0.20;;;;;;;13.30;39.55;100228.19;1721897;81;21487;-52
2021/05/09 10:16:37;;;;;;;0.20;0.20;;;;;;;13.06;40.83;100234.34;1722322;80;21201;-52
2021/05/09 10:19:10;;;;;;;0.93;0.20;;;;;;;12.97;41.97;100238.86;1723646;81;21054;-53
2021/05/09 10:21:37;;;;;;;1.72;0.30;;;;;;;12.99;42.48;100234.27;1729894;80;21268;-51
2021/05/09 10:24:24;;;;;;;3.47;0.80;;;;;;;13.02;42.21;100226.86;1725021;80;21171;-51
2021/05/09 10:27:01;;;;;;;0.50;0.20;;;;;;;13.02;42.23;100236.78;1720911;80;21209;-51
2021/05/09 10:29:40;;;;;;;0.30;0.20;;;;;;;13.03;41.92;100241.24;1721401;81;21156;-51
2021/05/09 10:32:28;;;;;;;0.20;0.20;;;;;;;13.07;42.44;100241.50;1717831;81;21226;-52
2021/05/09 10:35:01;;;;;;;0.42;0.20;;;;;;;13.12;42.13;100247.53;1720417;80;22826;-51
2021/05/09 10:37:45;;;;;;;0.23;0.20;;;;;;;13.22;42.06;100243.45;1720859;80;21227;-51
2021/05/09 10:40:23;;;;;;;0.50;0.20;;;;;;;13.33;42.13;100246.96;1720657;80;21175;-51
2021/05/09 10:43:08;;;;;;;0.30;0.20;;;;;;;13.45;41.85;100244.48;1723687;80;21622;-50
2021/05/09 10:45:44;;;;;;;4.67;0.30;;;;;;;13.59;41.73;100244.65;1720858;80;21486;-50
2021/05/09 10:48:25;;;;;;;0.62;0.20;;;;;;;13.70;40.85;100236.42;1687756;82;21224;-50
2021/05/09 10:51:05;;;;;;;0.47;0.20;;;;;;;13.68;41.36;100236.53;1668957;83;21236;-50
2021/05/09 10:53:39;;;;;;;0.30;0.20;;;;;;;13.68;41.48;100224.83;1719868;80;21174;-52
2021/05/09 10:56:21;;;;;;;0.20;0.20;;;;;;;13.66;41.15;100237.55;1719336;80;21609;-50
2021/05/09 10:58:51;;;;;;;0.20;0.20;;;;;;;13.56;40.84;100238.04;1720677;80;21111;-50
2021/05/09 11:01:24;;;;;;;0.20;0.20;;;;;;;13.55;40.28;100238.98;1722666;80;21419;-50
2021/05/09 11:03:54;;;;;;;0.37;0.20;;;;;;;13.55;40.61;100226.81;1725720;80;21668;-51
2021/05/09 11:06:30;;;;;;;0.62;0.20;;;;;;;13.57;40.36;100230.33;1724201;80;21104;-50
2021/05/09 11:09:06;;;;;;;0.17;0.10;;;;;;;13.58;40.58;100226.67;1723819;80;21119;-50
2021/05/09 11:11:43;;;;;;;0.20;0.20;;;;;;;13.55;39.24;100230.00;1722689;80;20961;-51
2021/05/09 11:14:16;;;;;;;1.07;0.30;;;;;;;13.49;38.84;100227.16;1724553;80;21534;-51
2021/05/09 11:17:07;;;;;;;1.02;0.20;;;;;;;13.45;39.16;100237.72;1724249;80;21578;-53
2021/05/09 11:19:45;;;;;;;0.30;0.20;;;;;;;13.42;39.49;100227.56;1669043;84;21138;-52
2021/05/09 11:22:12;;;;;;;0.30;0.20;;;;;;;13.45;40.36;100229.61;1686746;82;21136;-50
2021/05/09 11:24:41;;;;;;;0.37;0.20;;;;;;;13.57;40.45;100234.86;1659172;83;21141;-51
2021/05/09 11:27:12;;;;;;;0.25;0.17;;;;;;;13.72;40.53;100225.05;1725166;80;22040;-51
2021/05/09 11:29:41;;;;;;;0.20;0.10;;;;;;;13.82;40.42;100227.66;1727465;80;21119;-50
2021/05/09 11:32:14;;;;;;;0.35;0.20;;;;;;;13.89;39.54;100214.19;1722751;80;21115;-51
2021/05/09 11:34:58;;;;;;;0.20;0.20;;;;;;;13.94;39.51;100210.77;1737632;80;21121;-50
2021/05/09 11:37:39;;;;;;;1.65;0.20;;;;;;;13.98;39.18;100211.85;1740048;80;21134;-54
2021/05/09 11:40:10;;;;;;;0.20;0.13;;;;;;;14.01;39.15;100220.30;1734856;80;21359;-51
2021/05/09 11:42:38;;;;;;;0.30;0.10;;;;;;;13.98;38.92;100223.16;1737201;80;21768;-50
2021/05/09 11:45:06;;;;;;;1.07;0.20;;;;;;;13.95;38.98;100224.70;1740926;80;21129;-50
2021/05/09 11:47:34;;;;;;;1.32;0.10;;;;;;;13.93;38.54;100218.48;1739424;80;21139;-51
2021/05/09 11:50:08;;;;;;;1.17;0.65;;;;;;;13.93;38.70;100227.48;1667021;83;21187;-51